createdAt,value
2017-01-12T00:00:34.394Z,0.97
2017-01-12T00:01:34.380Z,0.93
2017-01-12T00:02:34.362Z,0.92
2017-01-12T00:03:34.346Z,0.96
2017-01-12T00:04:34.328Z,0.97
2017-01-12T00:05:34.338Z,0.89
2017-01-12T00:06:34.290Z,0.92
2017-01-12T00:07:34.281Z,0.86
2017-01-12T00:08:34.261Z,0.79
2017-01-12T00:09:34.244Z,0.78
2017-01-12T00:10:34.225Z,0.72
2017-01-12T00:11:34.208Z,0.86
2017-01-12T00:12:34.589Z,0.85
2017-01-12T00:13:34.183Z,0.76
2017-01-12T00:14:34.158Z,0.75
2017-01-12T00:15:34.145Z,0.72
2017-01-12T00:16:34.123Z,0.76
2017-01-12T00:17:34.111Z,0.82
2017-01-12T00:18:34.090Z,0.85
2017-01-12T00:19:34.072Z,0.79
2017-01-12T00:20:34.060Z,0.81
2017-01-12T00:21:34.043Z,0.82
2017-01-12T00:22:34.023Z,0.74
2017-01-12T00:23:34.008Z,0.75
2017-01-12T00:24:33.990Z,0.79
2017-01-12T00:25:33.974Z,0.79
2017-01-12T00:26:33.962Z,0.78
2017-01-12T00:27:33.939Z,0.81
2017-01-12T00:28:33.927Z,0.81
2017-01-12T00:29:33.911Z,0.84
2017-01-12T00:30:33.892Z,0.78
2017-01-12T00:31:33.872Z,0.81
2017-01-12T00:32:33.856Z,0.81
2017-01-12T00:33:33.841Z,0.85
2017-01-12T00:34:33.822Z,0.84
2017-01-12T00:35:33.808Z,0.85
2017-01-12T00:36:33.787Z,0.86
2017-01-12T00:37:33.782Z,0.84
2017-01-12T00:38:33.753Z,0.79
2017-01-12T00:39:33.739Z,0.85
2017-01-12T00:40:33.725Z,0.86
2017-01-12T00:41:33.705Z,0.82
2017-01-12T00:42:33.691Z,0.72
2017-01-12T00:43:33.670Z,0.79
2017-01-12T00:44:33.653Z,0.84
2017-01-12T00:45:33.640Z,0.82
2017-01-12T00:46:33.620Z,0.84
2017-01-12T00:47:33.605Z,0.89
2017-01-12T00:48:33.584Z,0.93
2017-01-12T00:49:33.569Z,0.79
2017-01-12T00:50:33.560Z,0.81
2017-01-12T00:51:33.541Z,0.93
2017-01-12T00:52:33.519Z,0.81
2017-01-12T00:53:33.502Z,0.79
2017-01-12T00:54:33.489Z,0.89
2017-01-12T00:55:33.473Z,0.79
2017-01-12T00:56:33.453Z,0.81
2017-01-12T00:57:33.440Z,0.79
2017-01-12T00:58:33.421Z,0.81
2017-01-12T00:59:33.767Z,0.75
2017-01-12T01:00:33.389Z,0.86
2017-01-12T01:01:33.371Z,0.82
2017-01-12T01:02:33.366Z,0.93
2017-01-12T01:03:33.334Z,0.93
2017-01-12T01:04:33.326Z,0.92
2017-01-12T01:05:33.301Z,0.86
2017-01-12T01:06:33.289Z,0.93
2017-01-12T01:07:33.272Z,0.89
2017-01-12T01:08:33.649Z,0.94
2017-01-12T01:09:33.241Z,0.89
2017-01-12T01:10:33.222Z,0.9
2017-01-12T01:11:33.204Z,0.97
2017-01-12T01:12:33.189Z,0.89
2017-01-12T01:13:33.169Z,0.93
2017-01-12T01:14:33.159Z,0.96
2017-01-12T01:15:33.140Z,0.94
2017-01-12T01:16:33.120Z,1
2017-01-12T01:17:33.104Z,0.92
2017-01-12T01:18:33.088Z,0.97
2017-01-12T01:19:33.069Z,1
2017-01-12T01:20:33.451Z,0.99
2017-01-12T01:21:33.044Z,0.99
2017-01-12T01:22:33.020Z,1.02
2017-01-12T01:23:33.009Z,0.97
2017-01-12T01:24:32.988Z,1.03
2017-01-12T01:25:32.974Z,1.11
2017-01-12T01:26:32.960Z,1.08
2017-01-12T01:27:32.938Z,1.08
2017-01-12T01:28:32.920Z,1.08
2017-01-12T01:29:32.913Z,1.1
2017-01-12T01:30:32.892Z,1
2017-01-12T01:31:32.873Z,1.1
2017-01-12T01:32:32.862Z,1.03
2017-01-12T01:33:32.840Z,1
2017-01-12T01:34:32.824Z,1.12
2017-01-12T01:35:32.808Z,0.97
2017-01-12T01:36:32.791Z,1.08
2017-01-12T01:37:32.777Z,1.1
2017-01-12T01:38:32.759Z,1.11
2017-01-12T01:39:32.745Z,1.11
2017-01-12T01:40:32.723Z,1.11
2017-01-12T01:41:32.711Z,1.11
2017-01-12T01:42:32.693Z,1.17
2017-01-12T01:43:32.675Z,1.18
2017-01-12T01:44:32.661Z,1.14
2017-01-12T01:45:32.645Z,1.1
2017-01-12T01:46:32.627Z,1.11
2017-01-12T01:47:32.609Z,1.17
2017-01-12T01:48:32.591Z,1.14
2017-01-12T01:49:32.578Z,1.15
2017-01-12T01:50:32.561Z,1.21
2017-01-12T01:51:32.544Z,1.22
2017-01-12T01:52:32.528Z,1.18
2017-01-12T01:53:32.515Z,1.2
2017-01-12T01:54:32.493Z,1.18
2017-01-12T01:55:32.480Z,1.28
2017-01-12T01:56:32.465Z,1.3
2017-01-12T01:57:32.475Z,1.21
2017-01-12T01:58:32.434Z,1.3
2017-01-12T01:59:32.416Z,1.3
2017-01-12T02:00:32.403Z,1.32
2017-01-12T02:01:32.384Z,1.24
2017-01-12T02:02:32.365Z,1.3
2017-01-12T02:03:32.356Z,1.24
2017-01-12T02:04:32.331Z,1.28
2017-01-12T02:05:32.318Z,1.2
2017-01-12T02:06:32.300Z,1.2
2017-01-12T02:07:32.283Z,1.32
2017-01-12T02:08:32.264Z,1.21
2017-01-12T02:09:32.251Z,1.28
2017-01-12T02:10:32.239Z,1.18
2017-01-12T02:11:32.246Z,1.15
2017-01-12T02:12:32.207Z,1.18
2017-01-12T02:13:32.191Z,1.18
2017-01-12T02:14:32.169Z,1.17
2017-01-12T02:15:32.151Z,1.24
2017-01-12T02:16:32.134Z,1.17
2017-01-12T02:17:32.121Z,1.17
2017-01-12T02:18:32.502Z,1.22
2017-01-12T02:19:32.093Z,1.24
2017-01-12T02:20:32.076Z,1.22
2017-01-12T02:21:32.054Z,1.2
2017-01-12T02:22:32.042Z,1.18
2017-01-12T02:23:32.024Z,1.28
2017-01-12T02:24:32.010Z,1.17
2017-01-12T02:25:31.991Z,1.24
2017-01-12T02:26:31.973Z,1.21
2017-01-12T02:27:31.959Z,1.2
2017-01-12T02:28:31.945Z,1.17
2017-01-12T02:29:31.926Z,1.2
2017-01-12T02:30:31.910Z,1.18
2017-01-12T02:31:31.899Z,1.21
2017-01-12T02:32:31.873Z,1.18
2017-01-12T02:33:31.862Z,1.24
2017-01-12T02:34:31.844Z,1.12
2017-01-12T02:35:31.855Z,1.18
2017-01-12T02:36:31.817Z,1.21
2017-01-12T02:37:31.795Z,1.12
2017-01-12T02:38:31.779Z,1.1
2017-01-12T02:39:31.764Z,1.12
2017-01-12T02:40:31.745Z,1.12
2017-01-12T02:41:31.731Z,1.2
2017-01-12T02:42:31.716Z,1.03
2017-01-12T02:43:31.699Z,1.07
2017-01-12T02:44:31.683Z,1.17
2017-01-12T02:45:31.660Z,1.08
2017-01-12T02:46:31.649Z,1.11
2017-01-12T02:47:31.636Z,1.17
2017-01-12T02:48:31.619Z,1.17
2017-01-12T02:49:31.598Z,1.03
2017-01-12T02:50:31.587Z,1.1
2017-01-12T02:51:31.565Z,1.14
2017-01-12T02:52:31.550Z,1.15
2017-01-12T02:53:31.536Z,1.11
2017-01-12T02:54:31.521Z,1.11
2017-01-12T02:55:31.498Z,1.07
2017-01-12T02:56:31.487Z,1.12
2017-01-12T02:57:31.465Z,1.08
2017-01-12T02:58:31.457Z,1.08
2017-01-12T02:59:31.530Z,1.11
2017-01-12T03:00:31.419Z,1.1
2017-01-12T03:01:31.406Z,1.15
2017-01-12T03:02:31.389Z,1.08
2017-01-12T03:03:31.368Z,1.07
2017-01-12T03:04:31.356Z,1.1
2017-01-12T03:05:31.340Z,1.08
2017-01-12T03:06:31.321Z,1.07
2017-01-12T03:07:31.303Z,1.07
2017-01-12T03:08:31.288Z,1.1
2017-01-12T03:09:31.273Z,1.12
2017-01-12T03:10:31.258Z,1.12
2017-01-12T03:11:31.238Z,1.1
2017-01-12T03:12:31.230Z,1.1
2017-01-12T03:13:31.205Z,1.12
2017-01-12T03:14:31.189Z,1.1
2017-01-12T03:15:31.175Z,1.12
2017-01-12T03:16:31.156Z,1.12
2017-01-12T03:17:31.142Z,1.14
2017-01-12T03:18:31.143Z,1.08
2017-01-12T03:19:31.107Z,1.12
2017-01-12T03:20:31.093Z,1.12
2017-01-12T03:21:31.075Z,1.11
2017-01-12T03:22:31.060Z,1.11
2017-01-12T03:23:31.042Z,1.11
2017-01-12T03:24:31.029Z,1.17
2017-01-12T03:25:31.011Z,1.03
2017-01-12T03:26:30.996Z,1.11
2017-01-12T03:27:30.977Z,1.03
2017-01-12T03:28:30.959Z,1.07
2017-01-12T03:29:30.947Z,1.12
2017-01-12T03:30:30.927Z,1.1
2017-01-12T03:31:30.916Z,1.03
2017-01-12T03:32:30.897Z,1.08
2017-01-12T03:33:30.882Z,1.04
2017-01-12T03:34:30.860Z,0.97
2017-01-12T03:35:30.845Z,0.94
2017-01-12T03:36:30.828Z,0.9
2017-01-12T03:37:30.810Z,0.89
2017-01-12T03:38:30.796Z,0.89
2017-01-12T03:39:30.780Z,0.85
2017-01-12T03:40:30.760Z,0.79
2017-01-12T03:41:30.747Z,0.76
2017-01-12T03:42:30.726Z,0.84
2017-01-12T03:43:30.711Z,0.78
2017-01-12T03:44:30.695Z,0.79
2017-01-12T03:45:30.679Z,0.78
2017-01-12T03:46:30.666Z,0.84
2017-01-12T03:47:30.645Z,0.86
2017-01-12T03:48:30.629Z,0.79
2017-01-12T03:49:30.614Z,0.81
2017-01-12T03:50:30.596Z,0.81
2017-01-12T03:51:30.580Z,0.86
2017-01-12T03:52:30.959Z,0.85
2017-01-12T03:53:30.546Z,0.78
2017-01-12T03:54:30.534Z,0.81
2017-01-12T03:55:30.517Z,0.76
2017-01-12T03:56:30.498Z,0.79
2017-01-12T03:57:30.483Z,0.69
2017-01-12T03:58:30.464Z,0.61
2017-01-12T03:59:30.446Z,0.58
2017-01-12T04:00:30.432Z,0.61
2017-01-12T04:01:30.414Z,0.53
2017-01-12T04:02:30.397Z,0.61
2017-01-12T04:03:30.377Z,0.61
2017-01-12T04:04:30.365Z,0.61
2017-01-12T04:05:30.350Z,0.66
2017-01-12T04:06:30.339Z,0.64
2017-01-12T04:07:30.317Z,0.63
2017-01-12T04:08:30.299Z,0.63
2017-01-12T04:09:30.282Z,0.66
2017-01-12T04:10:30.270Z,0.71
2017-01-12T04:11:30.248Z,0.61
2017-01-12T04:12:30.231Z,0.64
2017-01-12T04:13:30.216Z,0.69
2017-01-12T04:14:30.200Z,0.72
2017-01-12T04:15:30.183Z,0.76
2017-01-12T04:16:30.169Z,0.71
2017-01-12T04:17:30.148Z,0.76
2017-01-12T04:18:30.135Z,0.74
2017-01-12T04:19:30.120Z,0.69
2017-01-12T04:20:30.099Z,0.76
2017-01-12T04:21:30.085Z,0.75
2017-01-12T04:22:30.067Z,0.71
2017-01-12T04:23:30.050Z,0.75
2017-01-12T04:24:30.036Z,0.71
2017-01-12T04:25:30.025Z,0.75
2017-01-12T04:26:30.005Z,0.67
2017-01-12T04:27:29.981Z,0.63
2017-01-12T04:28:30.368Z,0.76
2017-01-12T04:29:29.954Z,0.78
2017-01-12T04:30:29.946Z,0.71
2017-01-12T04:31:29.917Z,0.78
2017-01-12T04:32:29.906Z,0.76
2017-01-12T04:33:29.895Z,0.76
2017-01-12T04:34:29.866Z,0.71
2017-01-12T04:35:29.854Z,0.64
2017-01-12T04:36:29.834Z,0.67
2017-01-12T04:37:29.819Z,0.64
2017-01-12T04:38:29.799Z,0.64
2017-01-12T04:39:29.787Z,0.69
2017-01-12T04:40:29.771Z,0.63
2017-01-12T04:41:29.763Z,0.6
2017-01-12T04:42:29.741Z,0.66
2017-01-12T04:43:29.717Z,0.64
2017-01-12T04:44:29.704Z,0.5
2017-01-12T04:45:29.682Z,0.47
2017-01-12T04:46:29.669Z,0.47
2017-01-12T04:47:29.650Z,0.48
2017-01-12T04:48:29.633Z,0.48
2017-01-12T04:49:29.617Z,0.52
2017-01-12T04:50:29.605Z,0.52
2017-01-12T04:51:29.584Z,0.52
2017-01-12T04:52:29.570Z,0.48
2017-01-12T04:53:29.552Z,0.63
2017-01-12T04:54:29.530Z,0.58
2017-01-12T04:55:29.515Z,0.64
2017-01-12T04:56:29.500Z,0.64
2017-01-12T04:57:29.490Z,0.52
2017-01-12T04:58:29.468Z,0.61
2017-01-12T04:59:29.450Z,0.6
2017-01-12T05:00:29.433Z,0.57
2017-01-12T05:01:29.418Z,0.53
2017-01-12T05:02:29.399Z,0.56
2017-01-12T05:03:29.387Z,0.47
2017-01-12T05:04:29.362Z,0.53
2017-01-12T05:05:29.347Z,0.5
2017-01-12T05:06:29.332Z,0.48
2017-01-12T05:07:29.310Z,0.48
2017-01-12T05:08:29.296Z,0.47
2017-01-12T05:09:29.286Z,0.58
2017-01-12T05:10:29.264Z,0.5
2017-01-12T05:11:29.247Z,0.47
2017-01-12T05:12:29.228Z,0.48
2017-01-12T05:13:29.212Z,0.52
2017-01-12T05:14:29.196Z,0.5
2017-01-12T05:15:29.182Z,0.5
2017-01-12T05:16:29.163Z,0.52
2017-01-12T05:17:29.143Z,0.5
2017-01-12T05:18:29.130Z,0.56
2017-01-12T05:19:29.112Z,0.56
2017-01-12T05:20:29.103Z,0.5
2017-01-12T05:21:29.080Z,0.63
2017-01-12T05:22:29.067Z,0.58
2017-01-12T05:23:29.044Z,0.64
2017-01-12T05:24:29.029Z,0.63
2017-01-12T05:25:29.011Z,0.67
2017-01-12T05:26:28.995Z,0.71
2017-01-12T05:27:28.981Z,0.64
2017-01-12T05:28:28.962Z,0.74
2017-01-12T05:29:28.946Z,0.72
2017-01-12T05:30:28.929Z,0.71
2017-01-12T05:31:28.915Z,0.64
2017-01-12T05:32:28.895Z,0.63
2017-01-12T05:33:28.875Z,0.67
2017-01-12T05:34:28.861Z,0.67
2017-01-12T05:35:28.844Z,0.63
2017-01-12T05:36:29.229Z,0.63
2017-01-12T05:37:28.844Z,0.6
2017-01-12T05:38:28.796Z,0.67
2017-01-12T05:39:28.780Z,0.6
2017-01-12T05:40:28.760Z,0.64
2017-01-12T05:41:28.751Z,0.48
2017-01-12T05:42:28.727Z,0.53
2017-01-12T05:43:28.712Z,0.57
2017-01-12T05:44:28.694Z,0.53
2017-01-12T05:45:28.679Z,0.5
2017-01-12T05:46:28.661Z,0.56
2017-01-12T05:47:28.644Z,0.48
2017-01-12T05:48:28.625Z,0.58
2017-01-12T05:49:28.612Z,0.6
2017-01-12T05:50:28.592Z,0.63
2017-01-12T05:51:28.579Z,0.6
2017-01-12T05:52:28.558Z,0.48
2017-01-12T05:53:28.541Z,0.48
2017-01-12T05:54:28.527Z,0.53
2017-01-12T05:55:28.507Z,0.56
2017-01-12T05:56:28.490Z,0.48
2017-01-12T05:57:28.475Z,0.48
2017-01-12T05:58:28.461Z,0.52
2017-01-12T05:59:28.442Z,0.5
2017-01-12T06:00:28.424Z,0.52
2017-01-12T06:01:28.410Z,0.53
2017-01-12T06:02:28.391Z,0.5
2017-01-12T06:03:28.376Z,0.5
2017-01-12T06:04:28.360Z,0.52
2017-01-12T06:05:28.340Z,0.56
2017-01-12T06:06:28.321Z,0.52
2017-01-12T06:07:28.313Z,0.48
2017-01-12T06:08:28.292Z,0.5
2017-01-12T06:09:28.277Z,0.53
2017-01-12T06:10:28.257Z,0.56
2017-01-12T06:11:28.239Z,0.5
2017-01-12T06:12:28.225Z,0.58
2017-01-12T06:13:28.206Z,0.52
2017-01-12T06:14:28.197Z,0.53
2017-01-12T06:15:28.175Z,0.52
2017-01-12T06:16:28.162Z,0.42
2017-01-12T06:17:28.140Z,0.58
2017-01-12T06:18:28.123Z,0.47
2017-01-12T06:19:28.107Z,0.53
2017-01-12T06:20:28.088Z,0.48
2017-01-12T06:21:28.076Z,0.44
2017-01-12T06:22:28.057Z,0.48
2017-01-12T06:23:28.040Z,0.63
2017-01-12T06:24:28.018Z,0.56
2017-01-12T06:25:28.004Z,0.5
2017-01-12T06:26:27.992Z,0.52
2017-01-12T06:27:27.972Z,0.45
2017-01-12T06:28:27.957Z,0.53
2017-01-12T06:29:27.939Z,0.48
2017-01-12T06:30:27.921Z,0.58
2017-01-12T06:31:27.903Z,0.5
2017-01-12T06:32:27.891Z,0.53
2017-01-12T06:33:27.877Z,0.52
2017-01-12T06:34:27.857Z,0.57
2017-01-12T06:35:27.868Z,0.47
2017-01-12T06:36:27.819Z,0.64
2017-01-12T06:37:27.801Z,0.56
2017-01-12T06:38:27.786Z,0.6
2017-01-12T06:39:27.768Z,0.6
2017-01-12T06:40:27.751Z,0.61
2017-01-12T06:41:27.738Z,0.56
2017-01-12T06:42:27.754Z,0.58
2017-01-12T06:43:27.702Z,0.48
2017-01-12T06:44:27.686Z,0.45
2017-01-12T06:45:27.675Z,0.64
2017-01-12T06:46:27.649Z,0.52
2017-01-12T06:47:27.637Z,0.5
2017-01-12T06:48:27.617Z,0.64
2017-01-12T06:49:27.602Z,0.61
2017-01-12T06:50:27.587Z,0.57
2017-01-12T06:51:27.567Z,0.61
2017-01-12T06:52:27.553Z,0.58
2017-01-12T06:53:27.541Z,0.71
2017-01-12T06:54:27.515Z,0.69
2017-01-12T06:55:27.506Z,0.69
2017-01-12T06:56:27.478Z,0.66
2017-01-12T06:57:27.463Z,0.64
2017-01-12T06:58:27.449Z,0.74
2017-01-12T06:59:27.460Z,0.67
2017-01-12T07:00:27.431Z,0.64
2017-01-12T07:01:27.393Z,0.61
2017-01-12T07:02:27.380Z,0.64
2017-01-12T07:03:27.362Z,0.66
2017-01-12T07:04:27.342Z,0.67
2017-01-12T07:05:27.330Z,0.67
2017-01-12T07:06:27.315Z,0.72
2017-01-12T07:07:27.296Z,0.69
2017-01-12T07:08:27.280Z,0.61
2017-01-12T07:09:27.304Z,0.61
2017-01-12T07:10:27.246Z,0.64
2017-01-12T07:11:27.398Z,0.61
2017-01-12T07:12:27.211Z,0.61
2017-01-12T07:13:27.226Z,0.64
2017-01-12T07:14:27.173Z,0.71
2017-01-12T07:15:27.160Z,0.69
2017-01-12T07:16:27.142Z,0.63
2017-01-12T07:17:27.175Z,0.66
2017-01-12T07:18:27.109Z,0.61
2017-01-12T07:19:27.093Z,0.57
2017-01-12T07:20:27.077Z,0.5
2017-01-12T07:21:27.056Z,0.63
2017-01-12T07:22:27.049Z,0.48
2017-01-12T07:23:27.025Z,0.48
2017-01-12T07:24:27.007Z,0.64
2017-01-12T07:25:26.994Z,0.61
2017-01-12T07:26:26.975Z,0.63
2017-01-12T07:27:26.955Z,0.64
2017-01-12T07:28:26.942Z,0.69
2017-01-12T07:29:26.928Z,0.64
2017-01-12T07:30:26.917Z,0.64
2017-01-12T07:31:26.891Z,0.75
2017-01-12T07:32:26.883Z,0.75
2017-01-12T07:33:26.859Z,0.75
2017-01-12T07:34:26.841Z,0.76
2017-01-12T07:35:26.829Z,0.71
2017-01-12T07:36:26.812Z,0.81
2017-01-12T07:37:26.794Z,0.79
2017-01-12T07:38:26.777Z,0.82
2017-01-12T07:39:26.760Z,0.81
2017-01-12T07:40:26.744Z,0.81
2017-01-12T07:41:26.729Z,0.85
2017-01-12T07:42:26.707Z,0.78
2017-01-12T07:43:26.692Z,0.84
2017-01-12T07:44:26.680Z,0.81
2017-01-12T07:45:26.664Z,0.84
2017-01-12T07:46:26.661Z,0.82
2017-01-12T07:47:26.626Z,0.82
2017-01-12T07:48:26.613Z,0.82
2017-01-12T07:49:26.592Z,0.79
2017-01-12T07:50:26.580Z,0.9
2017-01-12T07:51:26.561Z,0.9
2017-01-12T07:52:26.548Z,0.92
2017-01-12T07:53:26.528Z,0.92
2017-01-12T07:54:26.509Z,0.86
2017-01-12T07:55:26.500Z,0.92
2017-01-12T07:56:26.478Z,1
2017-01-12T07:57:26.465Z,1
2017-01-12T07:58:26.447Z,1.02
2017-01-12T07:59:26.430Z,0.99
2017-01-12T08:00:26.411Z,1.1
2017-01-12T08:01:26.395Z,1.15
2017-01-12T08:02:26.387Z,1.18
2017-01-12T08:03:26.361Z,1.18
2017-01-12T08:04:26.349Z,1.17
2017-01-12T08:05:26.331Z,1.3
2017-01-12T08:06:26.311Z,1.28
2017-01-12T08:07:26.300Z,1.15
2017-01-12T08:08:26.284Z,1.28
2017-01-12T08:09:26.266Z,1.28
2017-01-12T08:10:26.248Z,1.3
2017-01-12T08:11:26.231Z,1.29
2017-01-12T08:12:26.215Z,1.32
2017-01-12T08:13:26.201Z,1.32
2017-01-12T08:14:26.188Z,1.21
2017-01-12T08:15:26.169Z,1.21
2017-01-12T08:16:26.154Z,1.2
2017-01-12T08:17:26.137Z,1.18
2017-01-12T08:18:26.124Z,1.21
2017-01-12T08:19:26.103Z,1.2
2017-01-12T08:20:26.097Z,1.18
2017-01-12T08:21:26.071Z,1.24
2017-01-12T08:22:26.055Z,1.29
2017-01-12T08:23:26.041Z,1.26
2017-01-12T08:24:26.022Z,1.24
2017-01-12T08:25:26.036Z,1.24
2017-01-12T08:26:25.990Z,1.28
2017-01-12T08:27:25.971Z,1.28
2017-01-12T08:28:25.960Z,1.33
2017-01-12T08:29:25.945Z,1.26
2017-01-12T08:30:25.931Z,1.36
2017-01-12T08:31:25.910Z,1.21
2017-01-12T08:32:25.896Z,1.3
2017-01-12T08:33:25.880Z,1.3
2017-01-12T08:34:25.859Z,1.3
2017-01-12T08:35:25.849Z,1.33
2017-01-12T08:36:25.863Z,1.26
2017-01-12T08:37:25.817Z,1.28
2017-01-12T08:38:25.797Z,1.39
2017-01-12T08:39:25.785Z,1.42
2017-01-12T08:40:25.767Z,1.56
2017-01-12T08:41:25.749Z,1.4
2017-01-12T08:42:25.731Z,1.44
2017-01-12T08:43:25.718Z,1.56
2017-01-12T08:44:25.699Z,1.57
2017-01-12T08:45:25.683Z,1.57
2017-01-12T08:46:25.671Z,1.47
2017-01-12T08:47:25.654Z,1.42
2017-01-12T08:48:25.637Z,1.42
2017-01-12T08:49:25.621Z,1.42
2017-01-12T08:50:25.608Z,1.47
2017-01-12T08:51:25.590Z,1.51
2017-01-12T08:52:25.574Z,1.56
2017-01-12T08:53:25.583Z,1.57
2017-01-12T08:54:25.542Z,1.58
2017-01-12T08:55:25.820Z,1.56
2017-01-12T08:56:25.510Z,1.56
2017-01-12T08:57:25.502Z,1.58
2017-01-12T08:58:25.485Z,1.5
2017-01-12T08:59:25.461Z,1.6
2017-01-12T09:00:25.447Z,1.61
2017-01-12T09:01:25.430Z,1.69
2017-01-12T09:02:25.418Z,1.58
2017-01-12T09:03:25.400Z,1.56
2017-01-12T09:04:25.388Z,1.65
2017-01-12T09:05:25.366Z,1.66
2017-01-12T09:06:25.352Z,1.71
2017-01-12T09:07:25.368Z,1.76
2017-01-12T09:08:25.318Z,1.68
2017-01-12T09:09:25.304Z,1.78
2017-01-12T09:10:25.299Z,1.78
2017-01-12T09:11:25.276Z,1.75
2017-01-12T09:12:25.262Z,1.76
2017-01-12T09:13:25.243Z,1.79
2017-01-12T09:14:25.226Z,1.84
2017-01-12T09:15:25.215Z,1.89
2017-01-12T09:16:25.193Z,1.82
2017-01-12T09:17:25.180Z,1.84
2017-01-12T09:18:25.168Z,1.87
2017-01-12T09:19:25.152Z,1.92
2017-01-12T09:20:25.135Z,1.89
2017-01-12T09:21:25.122Z,1.93
2017-01-12T09:22:25.101Z,2.08
2017-01-12T09:23:25.089Z,2.15
2017-01-12T09:24:25.074Z,2.15
2017-01-12T09:25:25.056Z,2.22
2017-01-12T09:26:25.440Z,2.2
2017-01-12T09:27:25.033Z,2.26
2017-01-12T09:28:25.010Z,2.15
2017-01-12T09:29:24.997Z,2.22
2017-01-12T09:30:24.982Z,2.18
2017-01-12T09:31:24.966Z,2.13
2017-01-12T09:32:24.951Z,2.18
2017-01-12T09:33:24.937Z,2.16
2017-01-12T09:34:24.925Z,2.09
2017-01-12T09:35:24.939Z,2.08
2017-01-12T09:36:24.890Z,2.05
2017-01-12T09:37:24.872Z,1.92
2017-01-12T09:38:24.861Z,1.84
2017-01-12T09:39:24.845Z,1.82
2017-01-12T09:40:24.832Z,1.84
2017-01-12T09:41:24.817Z,1.69
2017-01-12T09:42:24.795Z,1.75
2017-01-12T09:43:25.179Z,1.76
2017-01-12T09:44:24.772Z,1.72
2017-01-12T09:45:24.756Z,1.82
2017-01-12T09:46:24.735Z,1.74
2017-01-12T09:47:24.721Z,1.74
2017-01-12T09:48:24.704Z,1.64
2017-01-12T09:49:24.689Z,1.65
2017-01-12T09:50:24.676Z,1.57
2017-01-12T09:51:24.663Z,1.56
2017-01-12T09:52:24.642Z,1.56
2017-01-12T09:53:24.627Z,1.53
2017-01-12T09:54:24.613Z,1.65
2017-01-12T09:55:24.601Z,1.56
2017-01-12T09:56:24.584Z,1.65
2017-01-12T09:57:24.570Z,1.75
2017-01-12T09:58:24.552Z,1.71
2017-01-12T09:59:24.563Z,1.84
2017-01-12T10:00:24.516Z,1.94
2017-01-12T10:01:24.507Z,1.94
2017-01-12T10:02:24.487Z,2.09
2017-01-12T10:03:24.474Z,2.11
2017-01-12T10:04:24.456Z,2.2
2017-01-12T10:05:24.439Z,2.16
2017-01-12T10:06:24.432Z,2.23
2017-01-12T10:07:24.413Z,2.18
2017-01-12T10:08:24.393Z,2.18
2017-01-12T10:09:24.378Z,2.22
2017-01-12T10:10:24.365Z,2.13
2017-01-12T10:11:24.353Z,2.06
2017-01-12T10:12:24.337Z,2.09
2017-01-12T10:13:24.319Z,2.09
2017-01-12T10:14:24.306Z,2.06
2017-01-12T10:15:24.292Z,2.13
2017-01-12T10:16:24.680Z,2.15
2017-01-12T10:17:24.264Z,2.09
2017-01-12T10:18:24.246Z,2.22
2017-01-12T10:19:24.226Z,2.34
2017-01-12T10:20:24.212Z,2.3
2017-01-12T10:21:24.199Z,2.31
2017-01-12T10:22:24.187Z,2.41
2017-01-12T10:23:24.164Z,2.52
2017-01-12T10:24:24.554Z,2.58
2017-01-12T10:25:24.135Z,2.55
2017-01-12T10:26:24.124Z,2.66
2017-01-12T10:27:24.106Z,2.69
2017-01-12T10:28:24.094Z,2.81
2017-01-12T10:29:24.074Z,2.93
2017-01-12T10:30:24.063Z,2.96
2017-01-12T10:31:24.045Z,3.08
2017-01-12T10:32:24.430Z,2.99
2017-01-12T10:33:24.014Z,2.95
2017-01-12T10:34:24.398Z,2.9
2017-01-12T10:35:23.986Z,2.77
2017-01-12T10:36:23.971Z,2.65
2017-01-12T10:37:23.963Z,2.6
2017-01-12T10:38:23.950Z,2.59
2017-01-12T10:39:23.930Z,2.4
2017-01-12T10:40:23.914Z,2.26
2017-01-12T10:41:23.903Z,2.16
2017-01-12T10:42:23.883Z,2.18
2017-01-12T10:43:23.867Z,2.09
2017-01-12T10:44:24.256Z,2.05
2017-01-12T10:45:23.853Z,1.84
2017-01-12T10:46:23.825Z,1.87
2017-01-12T10:47:23.809Z,1.84
2017-01-12T10:48:23.914Z,1.86
2017-01-12T10:49:23.779Z,1.87
2017-01-12T10:50:23.763Z,1.86
2017-01-12T10:51:23.744Z,1.72
2017-01-12T10:52:23.754Z,1.87
2017-01-12T10:53:23.719Z,1.82
2017-01-12T10:54:23.700Z,1.74
2017-01-12T10:55:23.687Z,1.69
2017-01-12T10:56:23.673Z,1.66
2017-01-12T10:57:23.656Z,1.56
2017-01-12T10:58:23.818Z,1.64
2017-01-12T10:59:23.960Z,1.61
2017-01-12T11:00:23.609Z,1.57
2017-01-12T11:01:23.598Z,1.53
2017-01-12T11:02:23.585Z,1.64
2017-01-12T11:03:23.562Z,1.65
2017-01-12T11:04:23.550Z,1.68
2017-01-12T11:05:23.530Z,1.84
2017-01-12T11:06:23.735Z,2.02
2017-01-12T11:07:23.501Z,2.06
2017-01-12T11:08:23.488Z,2.09
2017-01-12T11:09:23.498Z,2.09
2017-01-12T11:10:23.453Z,1.97
2017-01-12T11:11:23.682Z,1.78
2017-01-12T11:12:23.682Z,1.84
2017-01-12T11:13:23.407Z,1.82
2017-01-12T11:14:23.390Z,1.75
2017-01-12T11:15:23.396Z,1.75
2017-01-12T11:16:23.360Z,1.72
2017-01-12T11:17:23.591Z,1.83
2017-01-12T11:18:23.655Z,1.83
2017-01-12T11:19:23.314Z,1.84
2017-01-12T11:20:23.292Z,1.84
2017-01-12T11:21:23.288Z,1.84
2017-01-12T11:22:23.435Z,1.98
2017-01-12T11:23:23.451Z,2.06
2017-01-12T11:24:23.235Z,2.01
2017-01-12T11:25:23.216Z,2.01
2017-01-12T11:26:23.204Z,1.79
2017-01-12T11:27:23.278Z,1.79
2017-01-12T11:28:23.315Z,1.72
2017-01-12T11:29:24.000Z,1.66
2017-01-12T11:30:23.142Z,1.56
2017-01-12T11:31:23.131Z,1.57
2017-01-12T11:32:23.112Z,1.47
2017-01-12T11:33:23.092Z,1.38
2017-01-12T11:34:23.079Z,1.53
2017-01-12T11:35:23.057Z,1.51
2017-01-12T11:36:23.048Z,1.44
2017-01-12T11:37:23.027Z,1.48
2017-01-12T11:38:23.015Z,1.57
2017-01-12T11:39:22.994Z,1.44
2017-01-12T11:40:22.985Z,1.44
2017-01-12T11:41:22.971Z,1.53
2017-01-12T11:42:22.947Z,1.58
2017-01-12T11:43:22.936Z,1.74
2017-01-12T11:44:22.916Z,1.83
2017-01-12T11:45:22.901Z,1.97
2017-01-12T11:46:22.884Z,1.93
2017-01-12T11:47:22.872Z,2.09
2017-01-12T11:48:22.851Z,2.05
2017-01-12T11:49:22.842Z,2.09
2017-01-12T11:50:22.821Z,2.05
2017-01-12T11:51:22.803Z,2.05
2017-01-12T11:52:22.792Z,2.08
2017-01-12T11:53:22.774Z,2.08
2017-01-12T11:54:22.758Z,2.05
2017-01-12T11:55:22.748Z,2.06
2017-01-12T11:56:22.730Z,2.18
2017-01-12T11:57:22.711Z,2.08
2017-01-12T11:58:22.698Z,2.18
2017-01-12T11:59:22.684Z,2.05
2017-01-12T12:00:22.910Z,2.09
2017-01-12T12:01:22.909Z,2.08
2017-01-12T12:02:23.092Z,2.12
2017-01-12T12:03:22.616Z,2.04
2017-01-12T12:04:22.607Z,2.12
2017-01-12T12:05:22.586Z,2.09
2017-01-12T12:06:22.571Z,2.11
2017-01-12T12:07:22.552Z,2.05
2017-01-12T12:08:22.538Z,1.93
2017-01-12T12:09:22.587Z,1.9
2017-01-12T12:10:22.508Z,1.89
2017-01-12T12:11:22.493Z,1.9
2017-01-12T12:12:22.481Z,1.94
2017-01-12T12:13:22.459Z,2.02
2017-01-12T12:14:22.448Z,1.98
2017-01-12T12:15:22.430Z,2.12
2017-01-12T12:16:22.413Z,2.08
2017-01-12T12:17:22.429Z,2.02
2017-01-12T12:18:22.387Z,2.13
2017-01-12T12:19:22.370Z,2.22
2017-01-12T12:20:22.350Z,2.29
2017-01-12T12:21:22.347Z,2.4
2017-01-12T12:22:22.523Z,2.34
2017-01-12T12:23:22.304Z,2.31
2017-01-12T12:24:22.297Z,2.51
2017-01-12T12:25:22.277Z,2.49
2017-01-12T12:26:22.261Z,2.54
2017-01-12T12:27:22.244Z,2.58
2017-01-12T12:28:22.229Z,2.58
2017-01-12T12:29:22.216Z,2.58
2017-01-12T12:30:22.201Z,2.49
2017-01-12T12:31:22.186Z,2.55
2017-01-12T12:32:22.170Z,2.54
2017-01-12T12:33:22.150Z,2.58
2017-01-12T12:34:22.138Z,2.58
2017-01-12T12:35:22.123Z,2.6
2017-01-12T12:36:22.111Z,2.51
2017-01-12T12:37:22.228Z,2.42
2017-01-12T12:38:22.105Z,2.41
2017-01-12T12:39:22.065Z,2.47
2017-01-12T12:40:22.316Z,2.45
2017-01-12T12:41:22.033Z,2.47
2017-01-12T12:42:22.018Z,2.52
2017-01-12T12:43:22.008Z,2.54
2017-01-12T12:44:22.019Z,2.69
2017-01-12T12:45:22.192Z,2.63
2017-01-12T12:46:21.960Z,2.67
2017-01-12T12:47:21.947Z,2.77
2017-01-12T12:48:21.925Z,2.76
2017-01-12T12:49:21.913Z,2.83
2017-01-12T12:50:21.919Z,2.84
2017-01-12T12:51:21.886Z,2.96
2017-01-12T12:52:21.870Z,3.02
2017-01-12T12:53:21.854Z,2.99
2017-01-12T12:54:21.839Z,2.98
2017-01-12T12:55:21.825Z,2.9
2017-01-12T12:56:21.814Z,2.95
2017-01-12T12:57:21.805Z,3.05
2017-01-12T12:58:21.784Z,2.98
2017-01-12T12:59:21.767Z,3.05
2017-01-12T13:00:21.752Z,3.06
2017-01-12T13:01:21.738Z,3.13
2017-01-12T13:02:21.723Z,3.19
2017-01-12T13:03:21.719Z,3.13
2017-01-12T13:04:22.095Z,3.17
2017-01-12T13:05:22.087Z,3.09
2017-01-12T13:06:21.672Z,3.17
2017-01-12T13:07:21.675Z,3.2
2017-01-12T13:08:21.637Z,3.19
2017-01-12T13:09:21.622Z,3.11
2017-01-12T13:10:21.612Z,3.11
2017-01-12T13:11:21.596Z,2.95
2017-01-12T13:12:21.583Z,3.03
2017-01-12T13:13:21.566Z,2.9
2017-01-12T13:14:21.553Z,2.9
2017-01-12T13:15:21.540Z,2.78
2017-01-12T13:16:21.525Z,2.8
2017-01-12T13:17:21.508Z,2.83
2017-01-12T13:18:21.494Z,2.8
2017-01-12T13:19:21.480Z,2.73
2017-01-12T13:20:21.471Z,2.66
2017-01-12T13:21:21.453Z,2.69